Time;durP1;ratioP1;P1;durP2;ratioP2;P2;SDS_P1;SDS_P2;PMS_P1;PMS_P2;Temp;Humidity;BMP_temperature;BMP_pressure;BME280_temperature;BME280_humidity;BME280_pressure;Samples;Min_cycle;Max_cycle;Signal;HPM_P1;HPM_P2
2022/01/15 00:02:11;;;;;;;9.57;7.03;;;1.60;99.90;;;;;;5076594;28;20458;-71
2022/01/15 00:04:38;;;;;;;14.53;6.20;;;1.60;99.90;;;;;;5076213;28;20537;-71
2022/01/15 00:07:06;;;;;;;12.77;8.33;;;1.60;99.90;;;;;;5075990;28;20481;-70
2022/01/15 00:09:33;;;;;;;15.63;9.00;;;1.70;99.90;;;;;;5075991;28;20726;-71
2022/01/15 00:12:00;;;;;;;13.23;6.27;;;1.70;99.90;;;;;;5075433;28;20558;-71
2022/01/15 00:14:33;;;;;;;13.00;7.40;;;1.60;99.90;;;;;;5075566;28;20473;-71
2022/01/15 00:17:06;;;;;;;10.63;5.63;;;1.50;99.90;;;;;;5078027;28;20603;-71
2022/01/15 00:19:41;;;;;;;13.60;4.67;;;1.40;99.90;;;;;;5080141;28;20505;-71
2022/01/15 00:22:11;;;;;;;11.53;5.37;;;1.40;99.90;;;;;;5080302;28;20552;-71
2022/01/15 00:24:38;;;;;;;7.57;4.90;;;1.50;99.90;;;;;;5080363;28;20538;-70
2022/01/15 00:27:06;;;;;;;13.93;6.07;;;1.50;99.90;;;;;;5080327;28;20480;-71
2022/01/15 00:29:33;;;;;;;10.10;6.70;;;1.40;99.90;;;;;;5079646;28;20492;-70
2022/01/15 00:32:00;;;;;;;8.77;5.17;;;1.30;99.90;;;;;;5080043;28;20936;-70
2022/01/15 00:34:27;;;;;;;13.87;6.27;;;1.30;99.90;;;;;;5080237;28;20830;-70
2022/01/15 00:36:55;;;;;;;9.60;5.60;;;1.30;99.90;;;;;;5079641;28;20944;-71
2022/01/15 00:39:24;;;;;;;12.70;6.87;;;1.30;99.90;;;;;;5079613;28;20896;-71
2022/01/15 00:41:51;;;;;;;17.33;8.00;;;1.30;99.90;;;;;;5079709;28;20746;-70
2022/01/15 00:44:18;;;;;;;18.23;9.27;;;1.30;99.90;;;;;;5079365;28;20541;-71
2022/01/15 00:46:46;;;;;;;13.43;7.23;;;1.30;99.90;;;;;;5078753;28;20453;-71
2022/01/15 00:49:13;;;;;;;11.33;7.67;;;1.30;99.90;;;;;;5079070;28;20564;-71
2022/01/15 00:51:41;;;;;;;11.00;6.67;;;1.20;99.90;;;;;;5079918;28;20556;-71
2022/01/15 00:54:07;;;;;;;11.43;6.10;;;1.20;99.90;;;;;;5080074;28;20485;-71
2022/01/15 00:56:36;;;;;;;7.63;5.77;;;1.20;99.90;;;;;;5079753;28;20831;-71
2022/01/15 00:59:03;;;;;;;10.30;4.03;;;1.30;99.90;;;;;;5079613;28;20533;-70
2022/01/15 01:01:30;;;;;;;11.93;6.13;;;1.30;99.90;;;;;;5078992;28;20584;-71
2022/01/15 01:03:57;;;;;;;10.90;4.77;;;1.20;99.90;;;;;;5079704;28;20466;-71
2022/01/15 01:06:24;;;;;;;11.80;4.67;;;1.20;99.90;;;;;;5079398;28;20458;-70
2022/01/15 01:08:51;;;;;;;10.40;6.27;;;1.20;99.90;;;;;;5079350;28;20534;-71
2022/01/15 01:11:28;;;;;;;9.80;4.63;;;1.10;99.90;;;;;;5079073;28;20541;-71
2022/01/15 01:24:52;;;;;;;10.30;5.70;;;1.10;99.90;;;;;;5078857;28;20468;-71
2022/01/15 01:27:25;;;;;;;15.10;5.33;;;1.10;99.90;;;;;;5079896;28;20533;-71
2022/01/15 01:30:10;;;;;;;10.40;5.50;;;1.10;99.90;;;;;;5078488;28;20640;-70
2022/01/15 01:32:49;;;;;;;8.87;5.63;;;1.10;99.90;;;;;;5078972;28;20465;-71
2022/01/15 01:35:29;;;;;;;11.63;6.00;;;1.20;99.90;;;;;;5078108;28;20474;-70
2022/01/15 01:38:00;;;;;;;9.50;5.70;;;1.20;99.90;;;;;;5078608;28;20916;-70
2022/01/15 01:40:37;;;;;;;10.80;5.50;;;1.10;99.90;;;;;;5078981;28;20489;-71
2022/01/15 01:43:15;;;;;;;10.43;5.03;;;1.00;99.90;;;;;;5079201;28;20857;-70
2022/01/15 01:45:48;;;;;;;8.30;4.27;;;1.00;99.90;;;;;;5078639;28;20760;-71
2022/01/15 01:48:15;;;;;;;10.27;4.50;;;1.10;99.90;;;;;;5078447;28;20457;-70
2022/01/15 01:50:42;;;;;;;15.80;7.57;;;1.10;99.90;;;;;;5078665;28;20532;-70
2022/01/15 01:53:10;;;;;;;9.50;5.20;;;0.90;99.90;;;;;;5078027;28;20921;-71
2022/01/15 01:55:37;;;;;;;7.77;4.80;;;0.80;99.90;;;;;;5078764;28;20782;-71
2022/01/15 01:58:04;;;;;;;10.13;4.40;;;0.60;99.90;;;;;;5078677;28;20920;-70
2022/01/15 02:00:33;;;;;;;14.60;5.60;;;0.60;99.90;;;;;;5078528;28;20569;-71
2022/01/15 02:03:02;;;;;;;18.03;8.50;;;0.70;99.90;;;;;;5078045;28;20534;-71
2022/01/15 02:05:29;;;;;;;12.30;5.13;;;0.70;99.90;;;;;;5077877;28;20541;-71
2022/01/15 02:07:56;;;;;;;12.40;5.20;;;0.80;99.90;;;;;;5076954;28;20549;-71
2022/01/15 02:10:23;;;;;;;11.07;5.93;;;0.90;99.90;;;;;;5077131;28;20449;-70
2022/01/15 02:12:51;;;;;;;7.83;4.77;;;0.80;99.90;;;;;;5077559;28;20458;-70
2022/01/15 02:15:20;;;;;;;10.03;5.93;;;0.80;99.90;;;;;;5077562;28;20446;-70
2022/01/15 02:17:49;;;;;;;14.77;7.73;;;0.80;99.90;;;;;;5077169;28;20557;-70
2022/01/15 02:20:59;;;;;;;7.77;4.93;;;0.80;99.90;;;;;;5077828;28;20869;-70
2022/01/15 02:23:35;;;;;;;12.50;5.67;;;0.80;99.90;;;;;;5077634;28;20453;-71
2022/01/15 02:26:05;;;;;;;18.40;7.53;;;0.80;99.90;;;;;;5078251;28;20756;-71
2022/01/15 02:28:34;;;;;;;10.27;6.00;;;0.80;99.90;;;;;;5077376;28;20940;-71
2022/01/15 02:31:03;;;;;;;12.30;5.53;;;0.80;99.90;;;;;;5076485;28;20546;-71
2022/01/15 02:33:31;;;;;;;16.10;4.87;;;0.80;99.90;;;;;;5076078;28;20565;-71
2022/01/15 02:36:00;;;;;;;11.00;5.13;;;0.80;99.90;;;;;;5076356;28;20526;-71
2022/01/15 02:38:27;;;;;;;12.10;6.93;;;0.80;99.90;;;;;;5076096;28;20474;-71
2022/01/15 02:40:54;;;;;;;12.63;6.13;;;0.80;99.90;;;;;;5076805;28;20565;-72
2022/01/15 02:43:28;;;;;;;13.17;7.03;;;0.80;99.90;;;;;;5077177;28;20522;-71
2022/01/15 02:45:56;;;;;;;11.87;6.47;;;0.80;99.90;;;;;;5076991;28;20457;-70
2022/01/15 02:48:26;;;;;;;10.90;6.07;;;0.70;99.90;;;;;;5077652;28;20489;-71
2022/01/15 02:50:54;;;;;;;15.93;6.17;;;0.70;99.90;;;;;;5077622;28;20556;-70
2022/01/15 02:53:22;;;;;;;18.63;6.67;;;0.60;99.90;;;;;;5077516;28;20533;-71
2022/01/15 02:55:51;;;;;;;15.13;4.90;;;0.60;99.90;;;;;;5077444;28;20941;-72
2022/01/15 02:58:19;;;;;;;10.10;3.90;;;0.60;99.90;;;;;;5076736;28;20532;-71
2022/01/15 03:00:47;;;;;;;10.40;4.60;;;0.60;99.90;;;;;;5076664;28;20577;-71
2022/01/15 03:03:14;;;;;;;7.23;3.73;;;0.70;99.90;;;;;;5076722;28;20549;-71
2022/01/15 03:05:41;;;;;;;17.43;5.70;;;0.80;99.90;;;;;;5077049;28;20933;-71
2022/01/15 03:08:09;;;;;;;11.63;4.43;;;0.80;99.90;;;;;;5077156;28;20821;-71
2022/01/15 03:10:37;;;;;;;9.53;3.77;;;0.70;99.90;;;;;;5076736;28;20961;-71
2022/01/15 03:13:10;;;;;;;9.60;4.57;;;0.70;99.90;;;;;;5076931;28;20827;-72
2022/01/15 03:15:37;;;;;;;11.20;4.03;;;0.60;99.90;;;;;;5077069;28;20515;-71
2022/01/15 03:18:04;;;;;;;12.07;4.50;;;0.60;99.90;;;;;;5076972;28;20536;-71
2022/01/15 03:20:31;;;;;;;9.67;4.63;;;0.70;99.90;;;;;;5077011;28;20582;-71
2022/01/15 03:22:58;;;;;;;12.50;5.40;;;0.70;99.90;;;;;;5076903;28;20843;-71
2022/01/15 03:25:25;;;;;;;6.57;4.33;;;0.70;99.90;;;;;;5077164;28;20521;-71
2022/01/15 03:27:54;;;;;;;9.97;4.27;;;0.70;99.90;;;;;;5077059;28;20541;-71
2022/01/15 03:30:21;;;;;;;8.20;4.37;;;0.70;99.90;;;;;;5076911;28;20450;-73
2022/01/15 03:32:48;;;;;;;10.10;4.83;;;0.80;99.90;;;;;;5077447;28;20477;-71
2022/01/15 03:35:17;;;;;;;12.60;6.17;;;0.80;99.90;;;;;;5076659;28;20604;-70
2022/01/15 03:37:44;;;;;;;9.47;5.23;;;0.80;99.90;;;;;;5076938;28;20549;-71
2022/01/15 03:40:14;;;;;;;7.53;4.43;;;0.70;99.90;;;;;;5076919;28;20866;-71
2022/01/15 03:42:42;;;;;;;7.30;4.23;;;0.70;99.90;;;;;;5076660;28;20881;-71
2022/01/15 03:45:12;;;;;;;12.90;6.00;;;0.70;99.90;;;;;;5076525;28;20447;-71
2022/01/15 03:47:39;;;;;;;8.97;4.00;;;0.60;99.90;;;;;;5077130;28;20493;-71
2022/01/15 03:50:08;;;;;;;17.17;4.63;;;0.60;99.90;;;;;;5075957;28;20537;-71
2022/01/15 03:52:35;;;;;;;7.33;3.20;;;0.70;99.90;;;;;;5075360;28;20748;-71
2022/01/15 03:55:03;;;;;;;9.30;5.97;;;0.70;99.90;;;;;;5076524;28;20521;-71
2022/01/15 03:57:29;;;;;;;8.00;3.63;;;0.70;99.90;;;;;;5076012;28;20549;-71
2022/01/15 03:59:56;;;;;;;8.07;5.03;;;0.70;99.90;;;;;;5075773;28;20533;-72
2022/01/15 04:02:25;;;;;;;11.10;4.10;;;0.80;99.90;;;;;;5075933;28;20581;-71
2022/01/15 04:04:51;;;;;;;13.73;5.53;;;0.80;99.90;;;;;;5076517;28;20517;-72
2022/01/15 04:07:18;;;;;;;7.10;4.40;;;0.70;99.90;;;;;;5076332;28;20969;-71
2022/01/15 04:09:45;;;;;;;8.23;5.93;;;0.60;99.90;;;;;;5076500;28;20545;-70
2022/01/15 04:12:12;;;;;;;14.87;5.33;;;0.50;99.90;;;;;;5076718;28;20499;-71
2022/01/15 04:14:39;;;;;;;8.07;4.30;;;0.50;99.90;;;;;;5076597;28;20533;-71
2022/01/15 04:17:07;;;;;;;13.13;4.77;;;0.50;99.90;;;;;;5077708;28;20475;-71
2022/01/15 04:19:36;;;;;;;16.23;7.20;;;0.50;99.90;;;;;;5076525;28;20449;-71
2022/01/15 04:22:03;;;;;;;7.70;4.40;;;0.50;99.90;;;;;;5077413;28;20493;-70
2022/01/15 04:24:30;;;;;;;5.63;3.10;;;0.50;99.90;;;;;;5077833;28;20453;-71
2022/01/15 04:26:57;;;;;;;8.97;4.40;;;0.50;99.90;;;;;;5079090;28;20545;-70
2022/01/15 04:29:24;;;;;;;7.70;3.93;;;0.50;99.90;;;;;;5077128;28;20802;-71
2022/01/15 04:31:51;;;;;;;7.87;3.80;;;0.50;99.90;;;;;;5076880;28;20455;-72
2022/01/15 04:34:21;;;;;;;8.27;3.87;;;0.60;99.90;;;;;;5076508;28;20478;-71
2022/01/15 04:36:51;;;;;;;11.20;4.07;;;0.50;99.90;;;;;;5076899;28;20548;-71
2022/01/15 04:39:18;;;;;;;6.87;3.80;;;0.40;99.90;;;;;;5076492;28;20530;-71
2022/01/15 04:41:45;;;;;;;14.53;4.43;;;0.30;99.90;;;;;;5076790;28;20482;-71
2022/01/15 04:44:12;;;;;;;14.20;4.83;;;0.20;99.90;;;;;;5076276;28;20537;-71
2022/01/15 04:46:40;;;;;;;7.00;3.30;;;0.10;99.90;;;;;;5076081;28;20553;-72
2022/01/15 04:49:09;;;;;;;9.80;3.00;;;0.10;99.90;;;;;;5075800;28;20540;-71
2022/01/15 04:51:36;;;;;;;19.80;5.30;;;0.10;99.90;;;;;;5075922;28;20549;-70
2022/01/15 04:54:05;;;;;;;10.53;4.43;;;0.00;99.90;;;;;;5076071;28;20485;-72
2022/01/15 04:56:32;;;;;;;4.23;3.27;;;0.10;99.90;;;;;;5076762;28;20477;-71
2022/01/15 04:58:59;;;;;;;10.83;5.00;;;0.10;99.90;;;;;;5076222;28;20534;-71
2022/01/15 05:01:26;;;;;;;12.60;4.50;;;0.20;99.90;;;;;;5075614;28;20984;-71
2022/01/15 05:03:52;;;;;;;6.40;4.00;;;0.20;99.90;;;;;;5079552;28;20489;-71
2022/01/15 05:06:19;;;;;;;5.50;3.20;;;0.30;99.90;;;;;;5079504;28;20454;-70
2022/01/15 05:08:47;;;;;;;5.07;2.87;;;0.30;99.90;;;;;;5079375;28;20482;-71
2022/01/15 05:11:27;;;;;;;6.20;3.63;;;0.30;99.90;;;;;;5078949;28;20458;-70
2022/01/15 05:13:53;;;;;;;13.17;4.87;;;0.40;99.90;;;;;;5078969;28;20764;-70
2022/01/15 05:16:20;;;;;;;5.03;4.13;;;0.40;99.90;;;;;;5079703;28;20548;-71
2022/01/15 05:18:47;;;;;;;7.63;4.30;;;0.40;99.90;;;;;;5079733;28;20537;-72
2022/01/15 05:21:14;;;;;;;8.47;3.80;;;0.40;99.90;;;;;;5078944;28;20572;-71
2022/01/15 05:23:41;;;;;;;7.93;4.10;;;0.50;99.90;;;;;;5079537;28;20809;-71
2022/01/15 05:26:09;;;;;;;5.60;3.00;;;0.50;99.90;;;;;;5079553;28;20549;-71
2022/01/15 05:28:37;;;;;;;9.53;4.63;;;0.60;99.90;;;;;;5079101;28;20462;-72
2022/01/15 05:31:04;;;;;;;4.43;3.20;;;0.70;99.90;;;;;;5078908;28;20540;-71
2022/01/15 05:33:33;;;;;;;12.33;5.10;;;0.60;99.90;;;;;;5079203;28;20565;-71
2022/01/15 05:36:00;;;;;;;9.13;4.43;;;0.60;99.90;;;;;;5079092;28;20902;-71
2022/01/15 05:38:27;;;;;;;13.40;3.90;;;0.50;99.90;;;;;;5078255;28;20760;-72
2022/01/15 05:40:54;;;;;;;7.50;4.40;;;0.60;99.90;;;;;;5078165;28;20870;-71
2022/01/15 05:43:21;;;;;;;11.33;3.23;;;0.50;99.90;;;;;;5077581;28;20553;-71
2022/01/15 05:45:49;;;;;;;5.60;2.83;;;0.50;99.90;;;;;;5078351;28;20489;-70
2022/01/15 05:48:17;;;;;;;7.70;4.50;;;0.50;99.90;;;;;;5078084;28;21041;-71
2022/01/15 05:50:44;;;;;;;5.60;3.60;;;0.50;99.90;;;;;;5078151;28;20541;-70
2022/01/15 05:53:11;;;;;;;7.00;3.10;;;0.50;99.90;;;;;;5078616;28;20533;-70
2022/01/15 05:55:38;;;;;;;14.90;5.67;;;0.40;99.90;;;;;;5078597;28;20949;-73
2022/01/15 05:58:06;;;;;;;8.33;3.97;;;0.20;99.90;;;;;;5078602;28;20482;-71
2022/01/15 06:00:34;;;;;;;8.77;3.60;;;0.10;99.90;;;;;;5078537;28;20457;-72
2022/01/15 06:03:02;;;;;;;8.60;4.57;;;0.20;99.90;;;;;;5078861;28;20577;-71
2022/01/15 06:05:29;;;;;;;7.53;4.23;;;0.20;99.90;;;;;;5078968;28;20768;-71
2022/01/15 06:07:56;;;;;;;7.07;4.37;;;0.30;99.90;;;;;;5078994;28;20549;-71
2022/01/15 06:10:23;;;;;;;5.40;4.03;;;0.30;99.90;;;;;;5078326;28;20447;-71
2022/01/15 06:12:50;;;;;;;9.53;3.20;;;0.30;99.90;;;;;;5078971;28;20556;-71
2022/01/15 06:15:17;;;;;;;13.87;5.30;;;0.40;99.90;;;;;;5077740;28;20545;-71
2022/01/15 06:17:45;;;;;;;9.50;4.00;;;0.40;99.90;;;;;;5078175;28;20988;-71
2022/01/15 06:20:15;;;;;;;6.67;3.00;;;0.40;99.90;;;;;;5078586;28;20540;-71
2022/01/15 06:22:43;;;;;;;6.07;3.53;;;0.30;99.90;;;;;;5077527;28;20577;-71
2022/01/15 06:25:10;;;;;;;7.07;2.93;;;0.30;99.90;;;;;;5077766;28;20482;-72
2022/01/15 06:27:37;;;;;;;10.00;4.77;;;0.30;99.90;;;;;;5078472;28;20545;-71
2022/01/15 06:30:06;;;;;;;9.93;5.07;;;1.10;99.90;;;;;;5077822;28;20938;-71
2022/01/15 06:32:36;;;;;;;9.00;4.90;;;1.40;99.90;;;;;;5077189;28;20450;-71
2022/01/15 06:35:04;;;;;;;6.53;3.37;;;1.20;99.90;;;;;;5077892;28;20484;-70
2022/01/15 06:37:33;;;;;;;7.97;4.47;;;1.10;99.90;;;;;;5078204;28;20500;-71
2022/01/15 06:39:59;;;;;;;7.40;4.60;;;0.90;99.90;;;;;;5077640;28;20451;-70
2022/01/15 06:42:26;;;;;;;6.93;3.87;;;0.80;99.90;;;;;;5077356;28;20486;-71
2022/01/15 06:44:53;;;;;;;6.40;4.30;;;1.20;99.90;;;;;;5077177;28;20537;-70
2022/01/15 06:47:20;;;;;;;5.93;3.97;;;1.40;99.90;;;;;;5077265;28;20544;-70
2022/01/15 06:49:47;;;;;;;8.30;4.53;;;1.30;99.90;;;;;;5077323;28;20545;-69
2022/01/15 06:52:14;;;;;;;9.90;4.23;;;1.70;99.90;;;;;;5077157;28;20541;-69
2022/01/15 06:54:42;;;;;;;14.37;4.27;;;1.40;99.90;;;;;;5077523;28;20533;-70
2022/01/15 06:57:09;;;;;;;10.27;3.87;;;1.20;99.90;;;;;;5077634;28;20454;-69
2022/01/15 06:59:36;;;;;;;7.83;3.83;;;1.10;99.90;;;;;;5077759;28;20478;-69
2022/01/15 07:02:07;;;;;;;13.13;5.07;;;0.90;99.90;;;;;;5078196;28;20550;-69
2022/01/15 07:04:34;;;;;;;8.80;4.60;;;0.80;99.90;;;;;;5075792;28;20445;-69
2022/01/15 07:07:01;;;;;;;9.40;4.87;;;0.80;99.90;;;;;;5076976;28;20501;-70
2022/01/15 07:09:28;;;;;;;7.40;4.13;;;0.80;99.90;;;;;;5076975;28;20533;-69
2022/01/15 07:11:56;;;;;;;8.23;3.70;;;0.60;99.90;;;;;;5076020;28;20543;-69
2022/01/15 07:14:23;;;;;;;6.87;4.60;;;0.70;99.90;;;;;;5077042;28;20529;-69
2022/01/15 07:16:50;;;;;;;7.00;3.97;;;0.80;99.90;;;;;;5077236;28;20462;-69
2022/01/15 07:19:17;;;;;;;4.57;4.17;;;0.60;99.90;;;;;;5077335;28;20928;-69
2022/01/15 07:21:43;;;;;;;7.60;3.00;;;0.50;99.90;;;;;;5076878;28;20486;-69
2022/01/15 07:24:11;;;;;;;9.63;3.93;;;0.50;99.90;;;;;;5077149;28;20545;-69
2022/01/15 07:26:38;;;;;;;6.07;2.80;;;0.70;99.90;;;;;;5076444;28;20458;-70
2022/01/15 07:29:13;;;;;;;8.90;4.50;;;0.80;99.90;;;;;;5076036;28;20508;-69
2022/01/15 07:31:40;;;;;;;13.50;5.80;;;1.20;99.90;;;;;;5076088;28;20454;-70
2022/01/15 07:34:07;;;;;;;8.30;4.80;;;1.20;99.90;;;;;;5075433;28;20524;-68
2022/01/15 07:36:34;;;;;;;6.97;2.80;;;1.30;99.90;;;;;;5075605;28;20809;-68
2022/01/15 07:39:01;;;;;;;9.65;6.57;;;1.80;99.90;;;;;;5075511;28;20497;-67
2022/01/15 07:41:28;;;;;;;7.93;5.17;;;1.80;99.90;;;;;;5069735;28;20498;-67
2022/01/15 07:43:55;;;;;;;8.67;3.50;;;1.70;99.90;;;;;;5071698;28;20465;-68
2022/01/15 07:46:24;;;;;;;6.10;3.60;;;1.90;99.90;;;;;;5071867;28;20992;-67
2022/01/15 07:48:51;;;;;;;7.43;4.03;;;2.10;99.90;;;;;;5074796;28;20533;-67
2022/01/15 07:51:18;;;;;;;8.67;4.20;;;2.20;99.90;;;;;;5074684;28;20837;-68
2022/01/15 07:53:45;;;;;;;13.03;4.77;;;2.50;99.90;;;;;;5074614;28;20792;-68
2022/01/15 07:56:12;;;;;;;5.27;3.70;;;2.40;99.90;;;;;;5075031;28;20937;-69
2022/01/15 07:58:39;;;;;;;6.90;3.57;;;2.70;99.90;;;;;;5075181;28;20486;-68
2022/01/15 08:01:06;;;;;;;10.90;6.20;;;2.70;99.90;;;;;;5074052;28;20545;-68
2022/01/15 08:03:34;;;;;;;6.93;4.63;;;2.30;99.90;;;;;;5073532;28;20489;-68
2022/01/15 08:06:01;;;;;;;8.17;4.90;;;1.80;99.90;;;;;;5074851;28;20464;-69
2022/01/15 08:08:29;;;;;;;7.93;4.33;;;1.40;99.90;;;;;;5076123;28;20581;-68
2022/01/15 08:10:56;;;;;;;7.23;3.60;;;1.00;99.90;;;;;;5076147;28;20813;-69
2022/01/15 08:13:23;;;;;;;8.80;5.03;;;0.80;99.90;;;;;;5076377;28;20854;-68
2022/01/15 08:15:50;;;;;;;6.30;3.60;;;0.70;99.90;;;;;;5075954;28;20493;-68
2022/01/15 08:18:18;;;;;;;4.87;3.97;;;0.70;99.90;;;;;;5076498;28;20454;-68
2022/01/15 08:20:47;;;;;;;10.10;3.83;;;0.70;99.90;;;;;;5075996;28;20446;-68
2022/01/15 08:23:13;;;;;;;4.43;2.90;;;0.80;99.90;;;;;;5075214;28;20514;-67
2022/01/15 08:25:41;;;;;;;8.93;4.10;;;1.00;99.90;;;;;;5076134;28;20545;-67
2022/01/15 08:28:08;;;;;;;6.40;3.57;;;1.10;99.90;;;;;;5076142;28;20531;-68
2022/01/15 08:30:35;;;;;;;6.70;3.27;;;1.10;99.90;;;;;;5075868;28;20537;-68
2022/01/15 08:33:02;;;;;;;6.03;3.40;;;1.20;99.90;;;;;;5075958;28;20920;-67
2022/01/15 08:35:29;;;;;;;8.60;4.53;;;1.40;99.90;;;;;;5074727;28;20545;-67
2022/01/15 08:38:01;;;;;;;5.40;3.20;;;1.70;99.90;;;;;;5076679;28;20519;-67
2022/01/15 08:40:29;;;;;;;6.57;3.97;;;2.30;99.90;;;;;;5077213;28;20450;-68
2022/01/15 08:42:56;;;;;;;10.40;4.57;;;2.40;99.90;;;;;;5078786;28;20520;-67
2022/01/15 08:45:23;;;;;;;5.60;2.83;;;3.00;99.90;;;;;;5077253;28;20537;-67
2022/01/15 08:47:50;;;;;;;4.50;3.20;;;3.40;99.90;;;;;;5068226;28;20542;-68
2022/01/15 08:50:18;;;;;;;8.23;3.90;;;3.00;99.90;;;;;;5069548;28;21087;-68
2022/01/15 08:52:45;;;;;;;6.83;4.60;;;2.80;99.90;;;;;;5075103;28;20450;-67
2022/01/15 08:55:14;;;;;;;11.03;3.30;;;2.30;99.90;;;;;;5079081;28;20529;-68
2022/01/15 08:57:42;;;;;;;7.83;3.73;;;2.00;99.90;;;;;;5079072;28;20542;-68
2022/01/15 09:00:13;;;;;;;7.40;3.43;;;2.20;99.90;;;;;;5077591;28;20453;-68
2022/01/15 09:02:40;;;;;;;13.03;3.30;;;2.40;99.90;;;;;;5077755;28;20474;-69
2022/01/15 09:05:08;;;;;;;10.53;4.70;;;2.30;99.90;;;;;;5078736;28;20545;-70
2022/01/15 09:07:35;;;;;;;6.70;3.70;;;2.50;99.90;;;;;;5077393;28;20901;-70
2022/01/15 09:10:02;;;;;;;8.83;5.77;;;2.70;99.90;;;;;;5077535;28;20482;-69
2022/01/15 09:12:30;;;;;;;9.97;4.63;;;2.70;99.90;;;;;;5076608;28;20451;-69
2022/01/15 09:14:59;;;;;;;7.43;5.97;;;2.50;99.90;;;;;;5078222;28;20534;-70
2022/01/15 09:17:26;;;;;;;5.10;3.40;;;2.70;99.90;;;;;;5077609;28;20482;-69
2022/01/15 09:19:53;;;;;;;9.30;4.77;;;2.60;99.90;;;;;;5077279;28;20533;-69
2022/01/15 09:22:20;;;;;;;10.43;6.70;;;2.60;99.90;;;;;;5077522;28;20485;-70
2022/01/15 09:24:47;;;;;;;11.97;5.27;;;2.60;99.90;;;;;;5077332;28;20529;-70
2022/01/15 09:30:13;;;;;;;12.80;5.27;;;2.30;99.90;;;;;;5078264;28;20425;-70
2022/01/15 09:32:40;;;;;;;6.50;3.93;;;2.10;99.90;;;;;;5076771;28;20545;-71
2022/01/15 09:35:08;;;;;;;9.33;3.70;;;2.20;99.90;;;;;;5078028;28;20949;-69
2022/01/15 09:37:36;;;;;;;8.70;5.40;;;2.60;99.90;;;;;;5078747;28;20967;-70
2022/01/15 09:40:05;;;;;;;11.50;6.03;;;3.10;99.90;;;;;;5077616;28;20450;-69
2022/01/15 09:42:33;;;;;;;8.73;4.87;;;3.30;99.90;;;;;;5076783;28;20563;-70
2022/01/15 09:45:04;;;;;;;7.60;5.00;;;3.90;99.90;;;;;;5076293;28;20477;-71
2022/01/15 09:47:33;;;;;;;6.30;5.03;;;4.10;99.90;;;;;;5077079;28;20481;-70
2022/01/15 09:50:00;;;;;;;13.20;7.53;;;4.30;99.90;;;;;;5075232;28;20516;-70
2022/01/15 09:52:27;;;;;;;9.50;4.83;;;4.50;99.90;;;;;;5076777;28;20537;-69
2022/01/15 09:54:54;;;;;;;9.03;5.80;;;4.30;99.90;;;;;;5076326;28;20446;-69
2022/01/15 09:57:21;;;;;;;7.60;6.20;;;4.10;99.90;;;;;;5056408;28;20825;-69
2022/01/15 09:59:48;;;;;;;12.07;6.97;;;4.10;99.90;;;;;;5066671;28;20897;-71
2022/01/15 10:02:16;;;;;;;7.57;6.20;;;3.90;99.90;;;;;;5077222;28;20820;-70
2022/01/15 10:04:44;;;;;;;7.70;6.93;;;3.80;99.90;;;;;;5078051;28;20417;-71
2022/01/15 10:07:15;;;;;;;12.43;6.33;;;3.60;99.90;;;;;;5077420;28;20565;-70
2022/01/15 10:09:43;;;;;;;6.73;4.90;;;3.30;99.90;;;;;;5076148;28;20887;-70
2022/01/15 10:12:12;;;;;;;13.03;8.70;;;3.40;99.90;;;;;;5072356;28;20454;-71
2022/01/15 10:14:41;;;;;;;13.20;8.60;;;3.60;99.90;;;;;;5071703;28;20873;-69
2022/01/15 10:17:24;;;;;;;13.87;8.00;;;3.70;99.90;;;;;;5061066;28;20839;-69
2022/01/15 10:19:52;;;;;;;10.77;6.70;;;3.70;99.90;;;;;;5067697;28;20537;-68
2022/01/15 10:22:20;;;;;;;12.60;6.87;;;3.80;99.90;;;;;;5067774;28;20827;-70
2022/01/15 10:24:57;;;;;;;7.60;6.23;;;3.90;99.90;;;;;;5071232;28;20466;-68
2022/01/15 10:27:27;;;;;;;12.23;5.50;;;3.90;99.90;;;;;;5076483;28;20468;-67
2022/01/15 10:30:00;;;;;;;7.40;6.70;;;3.80;99.90;;;;;;5076725;28;20478;-67
2022/01/15 10:32:30;;;;;;;7.80;5.13;;;3.60;99.90;;;;;;5075753;28;20429;-67
2022/01/15 10:34:57;;;;;;;11.40;6.40;;;3.50;99.90;;;;;;5074237;28;20509;-67
2022/01/15 10:37:26;;;;;;;10.87;7.30;;;3.70;99.90;;;;;;5072622;28;20544;-68
2022/01/15 10:40:04;;;;;;;15.30;7.77;;;3.70;99.90;;;;;;5073553;28;20538;-67
2022/01/15 10:42:32;;;;;;;8.17;5.00;;;3.70;99.90;;;;;;5074745;28;20545;-67
2022/01/15 10:45:01;;;;;;;7.97;6.80;;;3.80;99.90;;;;;;5074891;28;20461;-67
2022/01/15 10:47:30;;;;;;;10.80;7.10;;;4.00;99.90;;;;;;5075572;28;20429;-67
2022/01/15 10:50:02;;;;;;;8.30;6.33;;;4.10;99.90;;;;;;5074977;28;20463;-67
2022/01/15 10:52:30;;;;;;;9.30;7.33;;;3.90;99.90;;;;;;5071191;28;20425;-68
2022/01/15 10:55:05;;;;;;;13.13;6.43;;;3.80;99.90;;;;;;5074532;28;20420;-67
2022/01/15 10:57:34;;;;;;;8.93;7.07;;;3.80;99.90;;;;;;5072833;28;20482;-68
2022/01/15 11:00:17;;;;;;;11.77;6.00;;;3.60;99.90;;;;;;5074175;28;20449;-68
2022/01/15 11:02:47;;;;;;;12.57;9.07;;;3.80;99.90;;;;;;5073719;28;20488;-69
2022/01/15 11:05:26;;;;;;;10.93;7.93;;;4.10;99.90;;;;;;5071895;28;20958;-69
2022/01/15 11:07:53;;;;;;;11.33;7.13;;;4.20;99.90;;;;;;5072318;28;20519;-67
2022/01/15 11:10:20;;;;;;;12.30;7.47;;;4.30;99.90;;;;;;5072839;28;20453;-67
2022/01/15 11:12:48;;;;;;;8.50;5.67;;;4.40;99.90;;;;;;5072498;28;20461;-68
2022/01/15 11:15:16;;;;;;;14.83;8.00;;;4.70;99.90;;;;;;5073010;28;20519;-68
2022/01/15 11:17:43;;;;;;;8.20;6.20;;;4.90;99.90;;;;;;5072025;28;20463;-68
2022/01/15 11:20:14;;;;;;;11.67;7.77;;;5.00;99.90;;;;;;5073933;28;20561;-67
2022/01/15 11:22:42;;;;;;;17.40;9.33;;;5.10;99.90;;;;;;5072337;28;20486;-67
2022/01/15 11:25:13;;;;;;;10.77;6.60;;;5.20;99.90;;;;;;5075523;28;20497;-67
2022/01/15 11:27:40;;;;;;;13.40;8.20;;;5.00;99.90;;;;;;5074958;28;20489;-67
2022/01/15 11:30:09;;;;;;;9.77;7.23;;;4.80;99.90;;;;;;5074073;28;20534;-67
2022/01/15 11:32:36;;;;;;;12.80;7.10;;;4.90;99.90;;;;;;5074035;28;20426;-67
2022/01/15 11:35:05;;;;;;;11.63;6.70;;;5.10;99.90;;;;;;5072809;28;20971;-67
2022/01/15 11:37:46;;;;;;;12.60;7.27;;;5.10;99.90;;;;;;5074277;28;20417;-67
2022/01/15 11:40:36;;;;;;;11.03;7.80;;;5.30;99.90;;;;;;5071753;28;20451;-67
2022/01/15 11:43:41;;;;;;;8.60;6.30;;;5.10;99.90;;;;;;5070744;28;20451;-67
2022/01/15 11:46:29;;;;;;;10.57;6.13;;;5.00;99.90;;;;;;5073903;28;20540;-67
2022/01/15 11:49:37;;;;;;;13.73;8.67;;;5.00;99.90;;;;;;5071761;28;20438;-67
2022/01/15 11:52:43;;;;;;;9.37;6.50;;;5.10;99.90;;;;;;5049955;28;20558;-67
2022/01/15 11:55:18;;;;;;;11.67;7.90;;;5.30;99.90;;;;;;5071367;28;20458;-67
2022/01/15 11:57:48;;;;;;;11.27;7.53;;;5.10;99.90;;;;;;5072589;28;21032;-67
2022/01/15 12:00:21;;;;;;;11.63;7.60;;;5.20;99.90;;;;;;5053100;28;20448;-67
2022/01/15 12:03:05;;;;;;;11.27;7.07;;;5.00;99.90;;;;;;5054322;28;20505;-67
2022/01/15 12:05:38;;;;;;;9.87;6.77;;;5.00;99.90;;;;;;5055386;28;20446;-68
2022/01/15 12:08:27;;;;;;;11.33;6.17;;;5.20;99.90;;;;;;5057345;28;20439;-67
2022/01/15 12:10:56;;;;;;;9.20;6.60;;;5.30;99.90;;;;;;5074391;28;20442;-66
2022/01/15 12:13:25;;;;;;;9.37;6.50;;;5.60;99.90;;;;;;5073652;28;20447;-66
2022/01/15 12:16:16;;;;;;;8.40;5.63;;;5.80;99.90;;;;;;5074559;28;20447;-66
2022/01/15 12:18:47;;;;;;;12.07;7.83;;;5.80;99.90;;;;;;5074046;28;20794;-67
2022/01/15 12:21:54;;;;;;;7.33;5.37;;;5.80;99.90;;;;;;5060134;28;20553;-67
2022/01/15 12:24:53;;;;;;;11.07;5.33;;;5.80;99.90;;;;;;5072999;28;20532;-67
2022/01/15 12:27:26;;;;;;;11.50;7.27;;;5.70;99.90;;;;;;5073241;28;20460;-67
2022/01/15 12:30:11;;;;;;;10.30;5.83;;;5.50;99.90;;;;;;5072477;28;20439;-67
2022/01/15 12:32:41;;;;;;;14.00;5.83;;;5.50;99.90;;;;;;5055806;28;20478;-67
2022/01/15 12:35:15;;;;;;;9.83;6.80;;;5.60;99.90;;;;;;5074839;28;20466;-67
2022/01/15 12:37:55;;;;;;;10.80;8.30;;;5.60;99.90;;;;;;5067432;28;20863;-67
2022/01/15 12:40:27;;;;;;;10.63;6.43;;;5.60;99.90;;;;;;5054996;28;20447;-68
2022/01/15 12:42:57;;;;;;;7.70;5.80;;;5.90;99.90;;;;;;5062470;28;20565;-67
2022/01/15 12:45:25;;;;;;;8.53;5.43;;;5.90;99.90;;;;;;5074983;28;20513;-67
2022/01/15 12:47:52;;;;;;;10.23;7.20;;;6.10;99.90;;;;;;5073223;28;20886;-67
2022/01/15 12:50:19;;;;;;;11.10;6.73;;;5.80;99.90;;;;;;5073208;28;20454;-68
2022/01/15 12:52:47;;;;;;;12.60;7.83;;;5.80;99.90;;;;;;5073768;28;20519;-67
2022/01/15 12:55:13;;;;;;;8.97;5.43;;;5.70;99.90;;;;;;5073756;28;20900;-67
2022/01/15 12:57:46;;;;;;;8.27;4.73;;;5.60;99.90;;;;;;5074413;28;20549;-67
2022/01/15 13:00:22;;;;;;;6.10;4.40;;;5.90;99.90;;;;;;5073864;28;21100;-67
2022/01/15 13:02:53;;;;;;;6.67;4.80;;;6.00;99.90;;;;;;5072613;28;20458;-66
2022/01/15 13:05:20;;;;;;;7.50;5.30;;;6.10;99.90;;;;;;5072634;28;20565;-69
2022/01/15 13:07:55;;;;;;;10.57;6.00;;;6.00;99.90;;;;;;5072458;28;20549;-67
2022/01/15 13:10:49;;;;;;;14.37;6.80;;;6.10;99.90;;;;;;5073000;28;20566;-67
2022/01/15 13:13:21;;;;;;;9.73;6.23;;;6.00;99.90;;;;;;5073327;28;20439;-69
2022/01/15 13:15:59;;;;;;;10.53;6.07;;;5.80;99.90;;;;;;5073758;28;20521;-67
2022/01/15 13:18:28;;;;;;;13.07;6.97;;;5.60;99.90;;;;;;5073438;28;20450;-68
2022/01/15 13:20:57;;;;;;;12.80;7.73;;;5.60;99.90;;;;;;5072883;28;20547;-68